This is the latest recevied weather packets stored in our database for station/object VE3TEJ. If no packets are shown the sender has not sent any weather packets the latest 10 day(s).
| Time | Temp. | Humidity | Pressure | Rain* | Wind** | Luminosity | Snow |
|---|---|---|---|---|---|---|---|
| 1777668737 | 7.78° C | 48% | 1011.6 hPa | 0 mm | - | - | - |
| 1777668437 | 7.78° C | 48% | 1011.5 hPa | 0 mm | - | - | - |
| 1777668138 | 8.33° C | 48% | 1011.4 hPa | 0 mm | - | - | - |
| 1777667838 | 8.33° C | 51% | 1011.6 hPa | 0 mm | - | - | - |
| 1777667537 | 8.33° C | 46% | 1011.6 hPa | 0 mm | - | - | - |
| 1777667315 | 7.78° C | 50% | 1011.3 hPa | 0 mm | - | - | - |
| 1777667237 | 7.78° C | 48% | 1011.4 hPa | 0 mm | - | - | - |
| 1777666937 | 8.33° C | 47% | 1011.4 hPa | 0 mm | - | - | - |
| 1777666636 | 8.33° C | 47% | 1011.4 hPa | 0 mm | - | - | - |
| 1777666336 | 8.33° C | 45% | 1011.3 hPa | 0 mm | - | - | - |
| 1777666037 | 8.89° C | 47% | 1011.3 hPa | 0 mm | - | - | - |
| 1777665738 | 8.89° C | 50% | 1011.3 hPa | 0 mm | - | - | - |
| 1777665436 | 8.89° C | 50% | 1011.4 hPa | 0 mm | - | - | - |
| 1777665137 | 8.89° C | 46% | 1011.6 hPa | 0 mm | - | - | - |
| 1777664838 | 8.89° C | 49% | 1011.4 hPa | 0 mm | - | - | - |
| 1777664538 | 8.89° C | 48% | 1011.4 hPa | 0 mm | - | - | - |
| 1777664238 | 8.89° C | 49% | 1011.3 hPa | 0 mm | - | - | - |
| 1777663936 | 8.89° C | 49% | 1011.3 hPa | 0 mm | - | - | - |
| 1777663637 | 8.89° C | 47% | 1011.5 hPa | 0 mm | - | - | - |
| 1777663338 | 8.33° C | 50% | 1011.2 hPa | 0 mm | - | - | - |
| 1777663038 | 8.89° C | 49% | 1011.3 hPa | 0 mm | - | - | - |
| 1777662737 | 8.89° C | 48% | 1011.3 hPa | 0 mm | - | - | - |
| 1777662437 | 8.89° C | 52% | 1011.1 hPa | 0 mm | - | - | - |
| 1777662137 | 9.44° C | 50% | 1011.2 hPa | 0 mm | - | - | - |
| 1777661837 | 9.44° C | 50% | 1011.2 hPa | 0 mm | - | - | - |
* Rain latest hour (hover to see other rain measurements)
** Current wind speed in m/s (hover to see current wind gust speed)